Terminal Aerodrome Forecast
Issued by NWS Detroit/Pontiac, MI

Home | Current Version | Previous Version | Text Only | Print | Product List | Glossary On
Versions: 1 2 3 4 5 6 7 8 9 10 11 12 13 14 15 16
680
FTUS43 KDTX 051720
TAFFNT
TAF
KFNT 051720Z 0518/0618 01013G20KT P6SM FEW035
     FM051900 01013G20KT P6SM BKN040
     FM052300 35005KT P6SM SKC=

USA.gov is the U.S. government's official web portal to all federal, state and local government web resources and services.